Time;durP1;ratioP1;P1;durP2;ratioP2;P2;SDS_P1;SDS_P2;PMS_P1;PMS_P2;Temp;Humidity;BMP_temperature;BMP_pressure;BME280_temperature;BME280_humidity;BME280_pressure;Samples;Min_cycle;Max_cycle;Signal;HPM_P1;HPM_P2
2021/08/23 00:02:44;;;;;;;15.25;13.30;;;;;;;17.84;79.06;100212.59;1971900;88;31263;-60
2021/08/23 00:05:46;;;;;;;17.90;14.28;;;;;;;17.86;78.58;100209.27;1982141;89;34191;-61
2021/08/23 00:08:48;;;;;;;18.75;12.68;;;;;;;17.89;78.88;100197.30;1989178;88;29196;-61
2021/08/23 00:11:50;;;;;;;14.07;12.58;;;;;;;17.89;78.88;100197.30;1991433;89;27672;-62
2021/08/23 00:14:52;;;;;;;15.48;12.75;;;;;;;17.90;79.01;100197.20;1991054;88;29473;-61
2021/08/23 00:17:53;;;;;;;14.55;13.15;;;;;;;17.91;79.05;100207.53;1990094;89;31879;-61
2021/08/23 00:21:01;;;;;;;13.40;11.75;;;;;;;17.92;79.23;100210.61;1988630;89;33826;-60
2021/08/23 00:24:06;;;;;;;14.25;11.48;;;;;;;17.92;79.18;100199.77;1990282;87;29882;-63
2021/08/23 00:27:07;;;;;;;14.45;12.95;;;;;;;17.94;79.32;100207.28;1985901;88;27692;-62
2021/08/23 00:30:12;;;;;;;13.68;12.13;;;;;;;17.94;79.19;100209.14;1995112;88;28641;-62
2021/08/23 00:33:14;;;;;;;16.37;11.45;;;;;;;17.93;79.17;100204.20;1994766;88;31037;-60
2021/08/23 00:36:16;;;;;;;16.02;11.93;;;;;;;17.92;79.30;100191.16;1990038;89;32976;-60
2021/08/23 00:39:18;;;;;;;11.40;10.18;;;;;;;17.91;79.64;100194.86;1994647;88;30505;-61
2021/08/23 00:42:21;;;;;;;11.97;9.83;;;;;;;17.88;79.37;100199.16;1970690;88;27735;-61
2021/08/23 00:45:23;;;;;;;11.97;10.40;;;;;;;17.88;79.62;100199.16;1986366;89;28873;-61
2021/08/23 00:48:25;;;;;;;15.00;10.95;;;;;;;17.89;79.58;100191.88;1993616;89;32292;-62
2021/08/23 00:51:27;;;;;;;11.90;10.70;;;;;;;17.87;79.66;100183.89;1994700;88;33769;-61
2021/08/23 00:54:29;;;;;;;13.53;10.93;;;;;;;17.87;79.49;100177.62;1979526;89;30539;-61
2021/08/23 00:57:31;;;;;;;15.43;12.00;;;;;;;17.85;79.50;100181.80;1992020;89;27936;-62
2021/08/23 01:00:34;;;;;;;14.20;11.73;;;;;;;17.84;79.49;100185.49;1989284;89;29278;-61
2021/08/23 01:03:50;;;;;;;15.95;11.90;;;;;;;17.84;79.68;100180.58;1997674;88;32062;-60
2021/08/23 01:06:52;;;;;;;14.10;10.78;;;;;;;17.81;79.58;100167.28;2002866;88;33006;-60
2021/08/23 01:10:02;;;;;;;17.67;12.00;;;;;;;17.81;79.73;100166.77;1993247;88;30193;-61
2021/08/23 01:13:07;;;;;;;17.50;11.55;;;;;;;17.80;79.73;100168.27;2002509;88;27610;-60
2021/08/23 01:16:09;;;;;;;11.85;10.45;;;;;;;17.77;79.77;100171.59;2003157;88;28812;-60
2021/08/23 01:19:12;;;;;;;16.82;11.50;;;;;;;17.76;79.80;100165.80;2003013;88;30756;-61
2021/08/23 01:22:15;;;;;;;17.23;11.93;;;;;;;17.76;79.84;100163.09;2002943;88;32920;-61
2021/08/23 01:25:27;;;;;;;13.35;11.95;;;;;;;17.76;79.86;100170.38;2003239;88;29713;-62
2021/08/23 01:28:42;;;;;;;18.98;11.97;;;;;;;17.78;79.84;100175.18;1999008;88;28108;-60
2021/08/23 01:31:53;;;;;;;12.80;11.48;;;;;;;17.76;79.82;100166.31;1991766;88;28677;-60
2021/08/23 01:34:56;;;;;;;17.98;12.65;;;;;;;17.74;79.91;100175.05;1996257;88;32269;-62
2021/08/23 01:38:02;;;;;;;15.75;11.70;;;;;;;17.74;80.13;100184.54;2002820;88;33936;-61
2021/08/23 01:41:07;;;;;;;13.55;12.03;;;;;;;17.65;80.09;100160.89;1955913;88;29759;-59
2021/08/23 01:44:09;;;;;;;14.85;12.18;;;;;;;17.76;79.98;100178.00;1974972;88;27769;-61
2021/08/23 01:47:11;;;;;;;14.75;12.98;;;;;;;17.77;80.00;100174.30;1969873;90;29913;-62
2021/08/23 01:50:13;;;;;;;14.15;12.73;;;;;;;17.79;80.34;100170.61;1997352;88;31539;-62
2021/08/23 01:53:16;;;;;;;15.32;12.58;;;;;;;17.75;80.20;100164.59;2001103;87;34171;-61
2021/08/23 01:56:18;;;;;;;14.43;12.05;;;;;;;17.76;80.41;100158.18;2003270;87;29337;-62
2021/08/23 01:59:20;;;;;;;13.50;12.15;;;;;;;17.73;80.29;100164.69;2003043;87;27702;-61
2021/08/23 02:02:22;;;;;;;13.78;12.37;;;;;;;17.74;80.31;100163.70;1999518;88;29415;-61
2021/08/23 02:05:25;;;;;;;16.57;12.23;;;;;;;17.74;80.28;100162.36;1984026;89;31876;-61
2021/08/23 02:08:27;;;;;;;14.07;12.10;;;;;;;17.73;80.31;100161.98;1984116;88;34115;-62
2021/08/23 02:11:30;;;;;;;13.90;12.40;;;;;;;17.72;80.34;100153.48;1981353;89;30431;-61
2021/08/23 02:14:32;;;;;;;14.75;12.70;;;;;;;17.75;80.52;100153.75;1956310;91;27732;-61
2021/08/23 02:17:34;;;;;;;14.13;12.50;;;;;;;17.77;80.41;100159.40;1957067;89;29899;-61
2021/08/23 02:20:37;;;;;;;15.98;12.70;;;;;;;17.81;80.48;100150.52;1984034;88;32357;-61
2021/08/23 02:23:41;;;;;;;16.45;12.40;;;;;;;17.85;80.42;100161.98;1989018;88;32943;-61
2021/08/23 02:26:43;;;;;;;19.37;12.73;;;;;;;17.86;80.34;100160.48;1989268;88;29318;-61
2021/08/23 02:29:45;;;;;;;15.32;12.18;;;;;;;17.88;80.34;100152.22;1984304;88;27716;-61
2021/08/23 02:32:47;;;;;;;13.45;12.05;;;;;;;17.88;80.26;100146.80;1985649;89;29867;-62
2021/08/23 02:35:49;;;;;;;19.05;11.60;;;;;;;17.88;80.31;100148.16;1989010;89;31208;-61
2021/08/23 02:38:51;;;;;;;18.35;12.58;;;;;;;17.87;80.36;100139.17;1985269;89;34246;-64
2021/08/23 02:41:54;;;;;;;15.08;12.68;;;;;;;17.87;80.28;100140.53;1983643;89;30166;-62
2021/08/23 02:44:56;;;;;;;14.63;12.05;;;;;;;17.89;80.21;100147.16;1988911;88;27713;-61
2021/08/23 02:48:01;;;;;;;14.85;11.70;;;;;;;17.90;80.32;100144.83;1984838;89;29044;-61
2021/08/23 02:51:03;;;;;;;;;;;;;;;17.92;80.49;100137.43;1991430;88;31438;-61
2021/08/23 02:54:04;;;;;;;14.73;13.08;;;;;;;17.93;80.44;100135.09;1989239;88;33316;-61
2021/08/23 02:57:07;;;;;;;15.53;12.30;;;;;;;17.91;80.37;100139.30;1986735;89;30496;-61
2021/08/23 03:00:10;;;;;;;15.23;13.28;;;;;;;17.94;80.38;100142.74;1988717;89;28184;-62
2021/08/23 03:03:12;;;;;;;14.50;12.47;;;;;;;17.96;80.46;100135.31;1988198;89;29498;-60
2021/08/23 03:06:14;;;;;;;13.75;12.35;;;;;;;17.98;80.47;100138.80;1988781;89;32340;-60
2021/08/23 03:09:16;;;;;;;14.65;12.50;;;;;;;17.95;80.38;100146.67;1978062;88;33831;-61
2021/08/23 03:12:18;;;;;;;17.23;12.78;;;;;;;17.92;80.31;100145.08;1980938;89;29891;-60
2021/08/23 03:15:21;;;;;;;15.55;12.33;;;;;;;17.87;80.37;100141.89;1985285;88;27769;-60
2021/08/23 03:18:24;;;;;;;15.15;12.03;;;;;;;17.95;80.51;100162.08;1986786;89;28681;-61
2021/08/23 03:21:26;;;;;;;13.15;11.65;;;;;;;17.97;80.44;100151.47;1962655;88;32256;-61
2021/08/23 03:24:28;;;;;;;15.15;12.98;;;;;;;17.99;80.46;100143.23;1956126;89;33750;-60
2021/08/23 03:27:29;;;;;;;13.70;12.40;;;;;;;17.96;80.33;100144.33;1965983;89;29307;-60
2021/08/23 03:30:31;;;;;;;15.03;12.43;;;;;;;17.96;80.34;100137.55;1988840;89;27754;-60
2021/08/23 03:33:33;;;;;;;14.68;12.47;;;;;;;17.94;80.63;100130.55;1988961;88;29829;-61
2021/08/23 03:36:36;;;;;;;15.75;11.97;;;;;;;17.87;80.60;100131.05;1988477;89;31034;-61
2021/08/23 03:39:39;;;;;;;14.33;12.18;;;;;;;17.85;80.60;100129.46;1986321;89;33009;-61
2021/08/23 03:42:41;;;;;;;14.65;12.05;;;;;;;17.84;80.45;100131.30;1989069;88;30153;-62
2021/08/23 03:45:42;;;;;;;16.12;13.08;;;;;;;17.84;80.62;100142.64;1985010;88;27728;-61
2021/08/23 03:48:44;;;;;;;13.85;12.25;;;;;;;17.83;80.64;100142.27;1983822;88;29195;-61
2021/08/23 03:51:47;;;;;;;14.00;12.07;;;;;;;17.85;80.59;100136.23;1988221;89;32027;-61
2021/08/23 03:54:49;;;;;;;14.00;12.15;;;;;;;17.87;80.63;100134.27;1989084;88;33908;-61
2021/08/23 03:57:50;;;;;;;15.75;12.03;;;;;;;17.88;80.62;100137.31;1979980;88;30498;-61
2021/08/23 04:00:52;;;;;;;13.62;12.23;;;;;;;17.87;80.68;100135.11;1975246;89;27637;-62
2021/08/23 04:03:54;;;;;;;15.45;13.80;;;;;;;17.89;80.67;100132.26;1979892;89;30084;-61
2021/08/23 04:06:56;;;;;;;14.28;12.60;;;;;;;17.91;80.67;100128.94;1987448;88;32272;-62
2021/08/23 04:09:58;;;;;;;15.80;13.10;;;;;;;17.93;80.63;100133.73;1965715;89;33616;-62
2021/08/23 04:13:00;;;;;;;15.78;12.70;;;;;;;17.92;80.55;100126.59;1956346;90;30581;-62
2021/08/23 04:16:03;;;;;;;16.55;12.75;;;;;;;17.92;80.57;100138.78;1973726;89;27737;-62
2021/08/23 04:19:05;;;;;;;16.07;13.35;;;;;;;17.95;80.60;100148.02;1984235;88;28810;-61
2021/08/23 04:22:06;;;;;;;13.93;11.55;;;;;;;17.96;80.63;100144.33;1988832;89;31381;-61
2021/08/23 04:25:09;;;;;;;15.25;12.80;;;;;;;18.00;80.67;100153.09;1988986;89;33337;-62
2021/08/23 04:28:11;;;;;;;17.92;13.45;;;;;;;18.01;80.74;100138.06;1984531;88;30161;-62
2021/08/23 04:31:13;;;;;;;15.45;13.43;;;;;;;18.03;80.75;100144.22;1982955;89;27962;-62
2021/08/23 04:34:15;;;;;;;15.35;13.45;;;;;;;18.04;80.60;100146.42;1982740;89;28852;-63
2021/08/23 04:37:17;;;;;;;16.60;15.00;;;;;;;18.04;80.59;100151.34;1982803;88;32245;-61
2021/08/23 04:40:19;;;;;;;21.48;14.38;;;;;;;18.07;80.60;100148.88;1970191;89;34126;-63
2021/08/23 04:43:21;;;;;;;15.45;12.98;;;;;;;18.09;80.59;100148.27;1951218;91;30520;-62
2021/08/23 04:46:23;;;;;;;17.50;13.93;;;;;;;18.09;80.53;100146.91;1960251;89;27754;-61
2021/08/23 04:49:25;;;;;;;17.00;12.55;;;;;;;17.98;80.49;100127.48;1988915;88;29844;-62
2021/08/23 04:52:27;;;;;;;15.80;13.40;;;;;;;18.12;80.51;100143.07;1956122;89;31939;-62
2021/08/23 04:55:29;;;;;;;15.53;13.30;;;;;;;18.14;80.55;100149.23;1956479;91;34206;-61
2021/08/23 04:58:31;;;;;;;22.25;13.75;;;;;;;18.14;80.51;100144.66;1981173;89;30481;-61
2021/08/23 05:01:33;;;;;;;17.77;14.20;;;;;;;18.14;80.51;100150.08;1987106;87;27844;-61
2021/08/23 05:04:35;;;;;;;16.17;13.93;;;;;;;18.14;80.55;100151.43;1992074;88;29919;-61
2021/08/23 05:07:36;;;;;;;17.15;13.65;;;;;;;18.16;80.52;100162.16;1992619;88;32238;-61
2021/08/23 05:10:39;;;;;;;14.95;13.28;;;;;;;18.14;80.56;100156.85;1981753;88;34111;-61
2021/08/23 05:13:41;;;;;;;20.65;14.33;;;;;;;18.14;80.50;100154.14;1959178;88;29397;-61
2021/08/23 05:16:42;;;;;;;23.25;14.00;;;;;;;18.16;80.70;100161.66;2003127;88;27630;-62
2021/08/23 05:19:44;;;;;;;29.55;16.37;;;;;;;18.19;80.85;100160.55;1984360;88;29798;-60
2021/08/23 05:22:47;;;;;;;31.77;16.50;;;;;;;18.21;80.95;100161.27;2002620;88;32253;-62
2021/08/23 05:25:49;;;;;;;127.87;18.52;;;;;;;18.20;81.00;100167.19;1971481;89;33975;-62
2021/08/23 05:28:52;;;;;;;60.85;15.45;;;;;;;18.15;81.85;100163.16;2002328;88;30305;-60
2021/08/23 05:31:55;;;;;;;100.62;16.37;;;;;;;18.07;82.99;100165.16;2002685;88;27722;-60
2021/08/23 05:35:07;;;;;;;30.25;14.50;;;;;;;17.95;84.22;100165.64;1987560;87;28695;-61
2021/08/23 05:38:10;;;;;;;14.47;12.63;;;;;;;17.85;85.18;100160.12;2001413;88;27997;-61
2021/08/23 05:41:14;;;;;;;21.12;13.55;;;;;;;17.71;85.38;100157.69;2003177;88;33075;-61
2021/08/23 05:44:19;;;;;;;16.00;12.65;;;;;;;17.59;85.70;100165.84;2003000;88;29370;-60
2021/08/23 05:47:24;;;;;;;18.02;14.15;;;;;;;17.57;86.05;100169.17;2003465;88;27712;-60
2021/08/23 05:50:28;;;;;;;20.12;14.58;;;;;;;17.55;86.20;100163.48;2003348;88;28701;-76
2021/08/23 05:53:32;;;;;;;20.57;13.72;;;;;;;17.57;86.38;100155.63;2003412;88;31042;-73
2021/08/23 05:56:40;;;;;;;15.60;13.15;;;;;;;17.59;86.57;100156.84;1978469;88;33112;-75
2021/08/23 05:59:44;;;;;;;15.28;13.68;;;;;;;17.62;86.61;100162.02;1969776;90;29384;-76
2021/08/23 06:02:49;;;;;;;;;;;;;;;17.64;86.57;100164.11;1972665;90;27651;-75
2021/08/23 06:05:53;;;;;;;16.25;14.55;;;;;;;17.66;86.82;100161.26;1975567;89;29711;-73
2021/08/23 06:08:58;;;;;;;19.60;14.70;;;;;;;17.64;86.78;100158.69;1994625;89;31129;-75
2021/08/23 06:12:04;;;;;;;16.45;13.60;;;;;;;17.65;86.70;100147.34;1994633;88;33100;-74
2021/08/23 06:15:11;;;;;;;19.62;13.98;;;;;;;17.66;86.59;100153.13;1994583;89;29405;-77
2021/08/23 06:18:16;;;;;;;15.45;13.88;;;;;;;17.62;86.35;100157.95;1963509;90;27770;-73
2021/08/23 06:21:20;;;;;;;15.48;13.95;;;;;;;17.58;86.22;100155.11;1963692;89;28831;-77
2021/08/23 06:24:24;;;;;;;15.23;13.72;;;;;;;17.59;86.43;100167.20;1963211;89;31706;-70
2021/08/23 06:27:34;;;;;;;17.45;15.63;;;;;;;17.61;86.33;100172.48;1961800;90;34510;-69
2021/08/23 06:30:39;;;;;;;16.50;14.85;;;;;;;17.60;86.41;100166.22;1961826;89;29335;-60
2021/08/23 06:33:44;;;;;;;17.77;16.07;;;;;;;17.61;86.34;100165.70;1970941;89;27590;-61
2021/08/23 06:36:53;;;;;;;18.17;16.23;;;;;;;17.59;86.29;100175.33;1995133;89;28629;-61
2021/08/23 06:40:08;;;;;;;17.67;15.85;;;;;;;17.59;86.19;100172.62;1963725;89;31107;-61
2021/08/23 06:43:10;;;;;;;18.10;15.72;;;;;;;17.56;86.15;100179.63;1963574;89;33064;-61
2021/08/23 06:46:16;;;;;;;18.00;15.78;;;;;;;17.54;86.06;100182.95;1963635;90;29512;-61
2021/08/23 06:49:20;;;;;;;17.30;15.50;;;;;;;17.53;86.13;100180.38;1984711;89;27704;-61
2021/08/23 06:52:25;;;;;;;18.07;16.12;;;;;;;17.55;86.30;100191.45;1995122;89;28652;-61
2021/08/23 06:55:30;;;;;;;19.67;15.03;;;;;;;17.53;86.29;100196.13;1994741;88;31073;-62
2021/08/23 06:58:36;;;;;;;18.52;16.73;;;;;;;17.58;86.32;100196.63;1985466;89;33237;-61
2021/08/23 07:01:40;;;;;;;19.05;17.15;;;;;;;17.61;86.36;100193.67;1963079;89;29331;-60
2021/08/23 07:04:48;;;;;;;19.42;17.42;;;;;;;17.68;86.54;100187.73;1995000;88;27692;-62
2021/08/23 07:07:50;;;;;;;21.40;17.02;;;;;;;17.74;86.57;100189.45;1995043;88;28947;-60
2021/08/23 07:10:56;;;;;;;17.37;15.80;;;;;;;17.80;86.48;100192.14;1995114;88;31106;-61
2021/08/23 07:13:59;;;;;;;19.65;17.55;;;;;;;17.86;86.53;100201.14;1990245;89;33814;-61
2021/08/23 07:17:05;;;;;;;21.33;17.25;;;;;;;17.95;86.47;100204.09;1994952;89;29428;-61
2021/08/23 07:20:10;;;;;;;19.75;16.52;;;;;;;17.93;86.17;100204.20;1994936;89;27665;-61
2021/08/23 07:23:14;;;;;;;19.05;16.67;;;;;;;17.90;86.11;100203.09;1990702;89;28711;-60
2021/08/23 07:26:18;;;;;;;19.73;17.63;;;;;;;17.86;86.04;100199.78;1962286;90;31098;-61
2021/08/23 07:29:24;;;;;;;20.25;16.97;;;;;;;17.90;86.25;100197.67;1962087;90;34848;-60
2021/08/23 07:32:27;;;;;;;20.17;16.73;;;;;;;18.00;86.43;100193.27;1962205;89;29358;-63
2021/08/23 07:35:30;;;;;;;20.88;17.32;;;;;;;18.21;86.77;100196.51;1987149;89;27635;-62
2021/08/23 07:38:34;;;;;;;18.87;16.20;;;;;;;18.53;87.07;100196.52;1994653;89;28678;-62
2021/08/23 07:41:38;;;;;;;20.88;15.53;;;;;;;18.87;87.09;100195.46;1995019;88;31058;-62
2021/08/23 07:44:43;;;;;;;;;;;;;;;19.20;86.84;100207.13;1981334;89;32961;-59
2021/08/23 07:47:49;;;;;;;17.75;14.23;;;;;;;19.37;86.57;100213.80;1961781;89;29371;-60
2021/08/23 07:50:54;;;;;;;18.98;14.68;;;;;;;19.54;86.43;100215.52;1980254;89;27672;-61
2021/08/23 07:54:00;;;;;;;16.75;12.68;;;;;;;19.71;86.36;100210.80;1995101;89;28716;-61
2021/08/23 07:57:06;;;;;;;18.23;12.98;;;;;;;20.10;86.50;100205.14;1995067;88;31239;-60
2021/08/23 08:00:13;;;;;;;17.02;13.93;;;;;;;20.43;86.01;100205.23;1977658;89;32980;-60
2021/08/23 08:03:17;;;;;;;17.55;12.45;;;;;;;20.70;85.65;100200.91;1962082;90;29711;-59
2021/08/23 08:06:22;;;;;;;12.45;11.18;;;;;;;20.87;84.68;100204.81;1961952;90;27749;-60
2021/08/23 08:09:26;;;;;;;12.63;8.88;;;;;;;21.00;84.48;100209.08;1961880;89;29558;-59
2021/08/23 08:12:30;;;;;;;13.08;10.28;;;;;;;20.99;83.28;100201.91;1979741;89;31080;-60
2021/08/23 08:15:34;;;;;;;11.38;9.48;;;;;;;21.03;83.67;100200.63;1994959;89;32985;-61
2021/08/23 08:18:37;;;;;;;11.63;9.65;;;;;;;21.10;83.31;100206.70;1994919;89;29375;-60
2021/08/23 08:21:41;;;;;;;10.38;8.55;;;;;;;21.27;83.73;100204.22;1994560;88;27763;-61
2021/08/23 08:24:45;;;;;;;12.55;10.08;;;;;;;21.59;83.75;100204.82;1994807;88;28684;-60
2021/08/23 08:27:49;;;;;;;9.78;8.35;;;;;;;22.01;84.18;100210.63;1994977;88;31036;-59
2021/08/23 08:30:51;;;;;;;8.28;7.40;;;;;;;22.27;83.70;100211.75;1995059;89;33047;-59
2021/08/23 08:33:54;;;;;;;7.10;6.20;;;;;;;22.39;82.94;100215.11;1965716;88;29704;-60
2021/08/23 08:36:57;;;;;;;7.72;5.58;;;;;;;22.41;82.18;100209.87;1962111;89;27733;-60
2021/08/23 08:40:00;;;;;;;5.92;5.03;;;;;;;22.51;82.07;100210.32;1962000;89;28370;-63
2021/08/23 08:43:02;;;;;;;5.15;4.65;;;;;;;22.55;81.41;100213.09;1961793;89;31991;-60
2021/08/23 08:46:05;;;;;;;5.28;4.78;;;;;;;22.57;80.25;100211.07;1961696;89;33856;-62
2021/08/23 08:49:11;;;;;;;5.17;4.67;;;;;;;22.55;80.73;100213.94;1962116;89;29391;-61
2021/08/23 08:52:15;;;;;;;5.00;4.17;;;;;;;22.51;80.20;100219.87;1962078;90;27584;-61
2021/08/23 08:55:17;;;;;;;5.70;4.75;;;;;;;22.44;80.93;100212.30;1962136;89;28668;-61
2021/08/23 08:58:24;;;;;;;5.62;4.30;;;;;;;22.41;80.75;100213.97;1993855;89;32281;-61
2021/08/23 09:01:26;;;;;;;4.85;4.45;;;;;;;22.36;80.48;100216.78;1994926;88;33810;-61
2021/08/23 09:04:35;;;;;;;4.58;4.17;;;;;;;22.36;80.51;100217.66;1994868;88;29970;-61
2021/08/23 09:07:38;;;;;;;7.10;4.55;;;;;;;22.50;81.31;100221.77;1950825;89;27728;-61
2021/08/23 09:10:42;;;;;;;7.17;4.17;;;;;;;22.65;81.14;100221.20;1933121;90;29541;-61
2021/08/23 09:14:04;;;;;;;4.12;3.72;;;;;;;22.88;81.30;100227.03;1933362;90;31046;-61
2021/08/23 09:17:08;;;;;;;3.47;3.05;;;;;;;23.08;80.73;100221.38;1937295;90;34141;-61
2021/08/23 09:20:13;;;;;;;3.60;2.98;;;;;;;23.24;79.37;100217.91;1965410;90;30104;-62
2021/08/23 09:23:16;;;;;;;3.50;3.22;;;;;;;23.33;79.58;100216.97;1965494;90;27538;-62
2021/08/23 09:26:18;;;;;;;4.05;3.65;;;;;;;23.54;79.60;100211.09;1965235;90;28731;-62
2021/08/23 09:29:20;;;;;;;3.83;3.40;;;;;;;23.65;79.52;100214.89;1937294;89;31920;-62
2021/08/23 09:32:25;;;;;;;3.65;3.35;;;;;;;23.72;79.45;100208.25;1932909;92;34153;-59
2021/08/23 09:35:30;;;;;;;;;;;;;;;23.79;79.19;100213.42;1935704;91;29307;-59
2021/08/23 09:38:32;;;;;;;;;;;;;;;23.96;79.06;100214.36;1960450;90;27686;-61
2021/08/23 09:41:40;;;;;;;2.52;2.33;;;;;;;24.11;78.31;100213.22;1965444;89;29080;-60
2021/08/23 09:44:42;;;;;;;3.92;2.40;;;;;;;24.17;77.99;100210.32;1965074;89;31053;-61
2021/08/23 09:47:45;;;;;;;3.23;2.43;;;;;;;24.15;77.53;100212.36;1950232;90;33011;-60
2021/08/23 09:50:50;;;;;;;2.77;2.58;;;;;;;24.20;76.67;100214.09;1933211;92;29377;-60
2021/08/23 09:53:53;;;;;;;2.25;2.08;;;;;;;24.21;76.37;100215.81;1933360;92;27705;-60
2021/08/23 09:56:56;;;;;;;2.67;1.90;;;;;;;24.19;75.28;100213.75;1935081;90;29039;-59
2021/08/23 09:59:58;;;;;;;2.87;2.27;;;;;;;24.14;74.60;100224.34;1932863;92;32337;-60
2021/08/23 10:03:01;;;;;;;2.65;2.37;;;;;;;23.99;73.29;100223.27;1932916;91;34321;-60
2021/08/23 10:06:03;;;;;;;4.22;2.40;;;;;;;23.86;73.06;100227.30;1942849;90;29968;-59
2021/08/23 10:09:06;;;;;;;2.87;2.30;;;;;;;23.81;72.91;100227.80;1987685;89;27711;-60
2021/08/23 10:12:08;;;;;;;3.80;2.42;;;;;;;23.73;72.24;100220.91;1995022;89;29522;-60
2021/08/23 10:15:10;;;;;;;5.47;2.35;;;;;;;23.73;72.41;100230.48;1964878;89;32421;-61
2021/08/23 10:18:13;;;;;;;6.25;2.30;;;;;;;23.73;71.41;100226.91;1994970;88;32967;-60
2021/08/23 10:21:15;;;;;;;5.15;2.22;;;;;;;23.69;70.41;100226.36;1955263;89;29820;-61
2021/08/23 10:24:28;;;;;;;5.22;2.10;;;;;;;23.70;70.80;100226.70;1961742;89;27725;-61
2021/08/23 10:27:35;;;;;;;4.92;2.20;;;;;;;23.70;70.40;100232.17;1961423;89;29905;-61
2021/08/23 10:30:37;;;;;;;3.92;2.40;;;;;;;23.58;70.16;100237.59;1962011;89;32011;-61
2021/08/23 10:33:43;;;;;;;5.62;2.83;;;;;;;23.39;69.87;100239.53;1961893;89;29738;-61
2021/08/23 10:36:49;;;;;;;3.47;3.03;;;;;;;23.24;70.46;100246.12;1962275;90;30098;-61
2021/08/23 10:40:03;;;;;;;4.47;2.52;;;;;;;23.13;69.58;100244.47;1992830;89;27627;-60
2021/08/23 10:43:20;;;;;;;3.85;2.67;;;;;;;23.11;70.08;100245.13;1994929;89;28167;-60
2021/08/23 10:46:35;;;;;;;4.83;3.25;;;;;;;23.14;70.19;100246.68;1994925;89;31047;-61
2021/08/23 10:49:44;;;;;;;3.00;2.75;;;;;;;23.38;70.66;100244.66;1994855;89;33108;-62
2021/08/23 10:52:46;;;;;;;4.33;2.80;;;;;;;23.72;70.35;100244.34;1974045;88;29653;-63
2021/08/23 10:55:48;;;;;;;3.05;2.72;;;;;;;23.94;69.78;100242.36;1962211;90;27648;-61
2021/08/23 10:58:51;;;;;;;2.95;2.75;;;;;;;24.16;69.24;100237.88;1961721;89;29564;-61
2021/08/23 11:01:56;;;;;;;4.22;3.35;;;;;;;24.24;68.44;100229.66;1968420;89;45727;-62
2021/08/23 11:05:14;;;;;;;3.92;2.87;;;;;;;24.39;67.92;100232.62;1994727;88;33983;-61
2021/08/23 11:08:19;;;;;;;2.80;2.60;;;;;;;24.53;68.10;100229.21;1994596;88;30562;-61
2021/08/23 11:11:21;;;;;;;4.20;2.77;;;;;;;24.75;67.68;100231.48;1994802;88;27570;-61
2021/08/23 11:14:23;;;;;;;3.20;2.90;;;;;;;24.98;67.34;100225.66;1961684;89;29894;-60
2021/08/23 11:17:32;;;;;;;4.05;3.08;;;;;;;25.16;66.37;100223.21;1961636;90;32242;-60
2021/08/23 11:20:41;;;;;;;5.12;3.08;;;;;;;25.36;66.53;100225.58;1962158;89;32991;-60
2021/08/23 11:23:48;;;;;;;3.30;2.83;;;;;;;25.50;65.53;100224.88;1983879;89;29350;-60
2021/08/23 11:27:00;;;;;;;3.17;2.65;;;;;;;25.69;64.62;100219.52;1994876;88;27653;-60
2021/08/23 11:30:02;;;;;;;2.60;2.40;;;;;;;25.82;63.61;100220.30;1995293;88;28869;-59
2021/08/23 11:33:06;;;;;;;2.50;2.33;;;;;;;25.99;63.67;100217.48;1980883;88;31036;-60
2021/08/23 11:36:18;;;;;;;2.60;2.40;;;;;;;26.13;62.80;100218.15;1962255;90;33938;-60
2021/08/23 11:39:20;;;;;;;3.27;2.85;;;;;;;26.15;61.73;100212.47;1962076;90;29500;-61
2021/08/23 11:42:25;;;;;;;3.60;2.58;;;;;;;26.04;61.29;100211.81;1962199;89;28175;-61
2021/08/23 11:45:35;;;;;;;2.02;1.92;;;;;;;26.00;62.51;100213.70;1962612;89;28654;-60
2021/08/23 11:48:37;;;;;;;3.00;2.77;;;;;;;25.90;62.06;100201.07;1974182;88;32262;-65
2021/08/23 11:51:40;;;;;;;2.72;2.52;;;;;;;25.80;61.45;100204.56;1994768;88;33936;-61
2021/08/23 11:54:50;;;;;;;5.28;2.87;;;;;;;25.65;61.01;100200.86;1994786;89;30155;-61
2021/08/23 11:57:59;;;;;;;3.05;2.75;;;;;;;25.61;61.87;100202.58;1995185;88;27697;-61
2021/08/23 12:01:05;;;;;;;2.85;2.65;;;;;;;25.52;60.96;100193.18;1983491;88;28702;-61
2021/08/23 12:04:07;;;;;;;2.37;2.17;;;;;;;25.40;60.72;100198.99;1961905;90;31957;-62
2021/08/23 12:07:09;;;;;;;2.87;2.55;;;;;;;25.26;60.82;100195.61;1969947;89;34138;-61
2021/08/23 12:10:33;;;;;;;3.33;2.50;;;;;;;25.08;60.73;100187.08;1970777;88;30406;-61
2021/08/23 12:13:45;;;;;;;2.27;2.17;;;;;;;24.92;60.45;100182.49;1962210;89;28308;-60
2021/08/23 12:16:48;;;;;;;2.62;2.42;;;;;;;24.79;60.62;100189.86;1962066;90;29109;-60
2021/08/23 12:20:06;;;;;;;2.70;2.50;;;;;;;24.66;60.28;100186.22;1992868;89;32050;-62
2021/08/23 12:23:08;;;;;;;3.45;3.10;;;;;;;24.56;60.60;100190.53;1994840;89;34139;-62
2021/08/23 12:26:13;;;;;;;2.65;2.40;;;;;;;24.59;60.63;100196.17;1995008;89;30506;-61
2021/08/23 12:29:22;;;;;;;3.22;2.85;;;;;;;24.56;59.92;100200.12;1968811;88;28031;-61
2021/08/23 12:32:30;;;;;;;2.90;2.70;;;;;;;24.63;60.57;100192.57;1977140;89;28664;-61
2021/08/23 12:35:32;;;;;;;5.87;2.47;;;;;;;24.69;60.33;100186.42;1994892;88;31127;-60
2021/08/23 12:38:34;;;;;;;3.05;2.62;;;;;;;24.79;60.55;100183.53;1994943;88;34254;-61
2021/08/23 12:41:40;;;;;;;3.10;2.58;;;;;;;24.83;60.32;100178.03;1989063;88;30238;-61
2021/08/23 12:44:42;;;;;;;2.72;2.52;;;;;;;24.90;60.27;100186.45;1962078;89;27716;-62
2021/08/23 12:47:44;;;;;;;2.62;2.42;;;;;;;24.95;59.73;100184.89;1961709;89;29917;-61
2021/08/23 12:50:46;;;;;;;3.22;2.08;;;;;;;24.94;59.80;100185.05;1961714;90;32254;-77
2021/08/23 12:53:48;;;;;;;2.85;2.50;;;;;;;24.97;59.11;100184.20;1961619;90;33898;-71
2021/08/23 12:56:50;;;;;;;2.83;2.62;;;;;;;25.00;59.37;100187.10;1967698;89;30122;-73
2021/08/23 12:59:52;;;;;;;4.75;2.60;;;;;;;25.02;59.31;100183.68;1994933;88;27764;-71
2021/08/23 13:02:54;;;;;;;3.27;2.87;;;;;;;25.12;59.13;100182.13;1995072;88;28092;-68
2021/08/23 13:05:57;;;;;;;2.70;2.45;;;;;;;25.24;59.26;100182.58;1985712;89;32539;-63
2021/08/23 13:09:00;;;;;;;4.15;3.17;;;;;;;25.38;58.80;100181.89;1994431;88;34064;-65
2021/08/23 13:12:02;;;;;;;4.15;2.72;;;;;;;25.46;58.96;100182.41;1994905;88;29370;-68
2021/08/23 13:15:06;;;;;;;3.35;2.40;;;;;;;25.48;58.84;100183.92;2019059;87;27704;-66
2021/08/23 13:18:08;;;;;;;;;;;;;;;25.37;58.28;100190.27;2030187;86;29468;-65
2021/08/23 13:21:10;;;;;;;2.87;2.58;;;;;;;25.29;57.66;100182.92;1985895;86;31853;-65
2021/08/23 13:24:12;;;;;;;2.90;2.70;;;;;;;25.16;58.33;100181.59;1994893;88;32973;-65
2021/08/23 13:27:14;;;;;;;3.45;3.15;;;;;;;25.11;58.15;100186.73;1995043;88;29386;-65
2021/08/23 13:30:16;;;;;;;2.87;2.67;;;;;;;24.93;58.11;100191.55;1988083;89;27701;-67
2021/08/23 13:33:18;;;;;;;4.20;2.60;;;;;;;24.69;58.12;100189.16;1961832;89;28701;-65
2021/08/23 13:36:20;;;;;;;5.00;3.10;;;;;;;24.52;58.27;100197.38;1961916;90;31119;-64
2021/08/23 13:39:23;;;;;;;3.30;3.00;;;;;;;24.36;58.69;100193.25;1961777;90;32947;-65
2021/08/23 13:42:25;;;;;;;3.62;2.98;;;;;;;24.14;58.21;100195.59;1992388;89;29377;-66
2021/08/23 13:45:27;;;;;;;3.15;2.85;;;;;;;23.92;58.55;100206.63;1994991;88;27657;-66
2021/08/23 13:48:28;;;;;;;3.80;2.40;;;;;;;23.77;58.84;100205.02;1985769;89;28060;-71
2021/08/23 13:51:30;;;;;;;2.80;2.60;;;;;;;23.70;59.33;100202.61;1985695;87;30902;-75
2021/08/23 13:54:32;;;;;;;2.65;2.45;;;;;;;23.70;59.56;100205.34;1994873;88;33820;-76
2021/08/23 13:57:34;;;;;;;2.70;2.47;;;;;;;23.73;59.44;100209.97;1964918;88;29324;-74
2021/08/23 14:00:36;;;;;;;3.15;2.85;;;;;;;23.71;59.60;100201.59;1961974;89;27865;-72
2021/08/23 14:03:38;;;;;;;3.58;3.12;;;;;;;23.72;59.77;100200.58;1961846;89;29577;-76
2021/08/23 14:06:40;;;;;;;3.52;3.22;;;;;;;23.69;59.75;100196.27;1961412;90;31102;-75